Time;durP1;ratioP1;P1;durP2;ratioP2;P2;SDS_P1;SDS_P2;PMS_P1;PMS_P2;Temp;Humidity;BMP_temperature;BMP_pressure;BME280_temperature;BME280_humidity;BME280_pressure;Samples;Min_cycle;Max_cycle;Signal;HPM_P1;HPM_P2
2024/02/21 06:25:56;;;;;;;;;;;;;;;1.65;100.00;100418.67;1821761;77;20157;-72
2024/02/21 06:28:23;;;;;;;;;;;;;;;1.77;100.00;100418.52;1810430;77;20134;-69
2024/02/21 06:30:49;;;;;;;;;;;;;;;1.88;100.00;100417.08;1807457;77;20147;-75
2024/02/21 06:33:16;;;;;;;;;;;;;;;1.98;100.00;100415.65;1807000;78;20436;-73
2024/02/21 09:04:00;;;;;;;;;;;;;;;3.72;100.00;100471.60;1756539;81;20181;-76
2024/02/21 09:06:25;;;;;;;;;;;;;;;3.74;100.00;100472.86;1762475;81;20151;-76
2024/02/21 09:08:51;;;;;;;;;;;;;;;3.76;100.00;100474.52;1766712;80;20146;-75
2024/02/21 09:11:19;;;;;;;;;;;;;;;3.81;100.00;100471.85;1760838;80;20142;-73
2024/02/21 09:13:48;;;;;;;;;;;;;;;3.83;100.00;100477.81;1761233;80;20297;-76
2024/02/21 09:16:15;;;;;;;;;;;;;;;3.85;100.00;100470.91;1765451;80;20146;-77
2024/02/21 09:18:42;;;;;;;;;;;;;;;3.88;100.00;100469.55;1764621;80;20427;-72
2024/02/21 09:21:11;;;;;;;;;;;;;;;3.93;100.00;100472.44;1766534;80;20131;-77
2024/02/21 09:23:39;;;;;;;;;;;;;;;4.01;100.00;100474.37;1738233;80;20204;-74
2024/02/21 09:26:05;;;;;;;;;;;;;;;4.09;100.00;100479.81;1765915;80;20438;-74
2024/02/21 09:28:33;;;;;;;;;;;;;;;4.19;100.00;100477.00;1765682;80;20108;-73
2024/02/21 09:30:59;;;;;;;;;;;;;;;4.30;100.00;100480.18;1755855;80;20100;-75
2024/02/21 09:33:25;;;;;;;;;;;;;;;4.41;100.00;100483.77;1736435;81;20142;-74
2024/02/21 09:35:52;;;;;;;;;;;;;;;4.52;100.00;100489.97;1767457;80;20096;-70
2024/02/21 09:38:21;;;;;;;;;;;;;;;4.60;100.00;100490.63;1767070;80;20128;-74
2024/02/21 09:40:53;;;;;;;;;;;;;;;4.66;100.00;100484.04;1763896;80;20181;-75
2024/02/21 09:43:21;;;;;;;;;;;;;;;4.70;100.00;100484.37;1766476;80;20148;-75
2024/02/21 09:45:48;;;;;;;;;;;;;;;4.72;100.00;100489.49;1765008;80;20143;-73
2024/02/21 09:48:52;;;;;;;;;;;;;;;4.72;100.00;100492.08;1736381;80;20094;-76
2024/02/21 09:51:23;;;;;;;;;;;;;;;4.68;100.00;100490.01;1747930;81;20560;-79
2024/02/21 09:53:54;;;;;;;;;;;;;;;4.63;100.00;100493.98;1757269;81;20176;-78
2024/02/21 09:56:20;;;;;;;;;;;;;;;4.61;100.00;100484.16;1775667;80;20137;-72
2024/02/21 09:58:47;;;;;;;;;;;;;;;4.61;100.00;100488.02;1751374;81;20127;-75
2024/02/21 10:01:13;;;;;;;;;;;;;;;4.60;100.00;100486.33;1744818;81;20112;-70
2024/02/21 10:03:39;;;;;;;;;;;;;;;4.57;100.00;100485.11;1748152;81;20130;-78
2024/02/21 10:06:07;;;;;;;;;;;;;;;4.57;100.00;100485.11;1729912;81;20144;-75
2024/02/21 10:08:33;;;;;;;;;;;;;;;4.57;100.00;100487.69;1745284;81;20463;-74
2024/02/21 10:11:01;;;;;;;;;;;;;;;4.56;100.00;100483.85;1749499;81;20105;-73
2024/02/21 10:13:29;;;;;;;;;;;;;;;4.55;100.00;100488.61;1778198;80;20141;-73
2024/02/21 10:16:07;;;;;;;;;;;;;;;4.52;100.00;100479.66;1748971;80;20379;-72
2024/02/21 10:18:41;;;;;;;;;;;;;;;4.52;100.00;100483.52;1747057;82;20148;-71
2024/02/21 13:46:00;;;;;;;;;;;;;;;4.31;100.00;100475.88;1778221;79;20116;-78
2024/02/21 13:48:30;;;;;;;;;;;;;;;4.31;100.00;100483.16;1761830;80;20130;-76
2024/02/21 13:50:56;;;;;;;;;;;;;;;4.30;100.00;100482.76;1766730;80;20104;-77
2024/02/21 13:53:23;;;;;;;;;;;;;;;4.32;100.00;100480.14;1777675;80;20135;-72
2024/02/21 13:55:49;;;;;;;;;;;;;;;4.33;100.00;100483.12;1780518;79;20161;-75
2024/02/21 13:58:17;;;;;;;;;;;;;;;4.31;100.00;100484.89;1737599;81;20097;-74
2024/02/21 14:00:43;;;;;;;;;;;;;;;4.29;100.00;100484.93;1745961;80;20154;-74
2024/02/21 14:03:10;;;;;;;;;;;;;;;4.28;100.00;100484.52;1783392;79;20421;-73
2024/02/21 14:05:43;;;;;;;;;;;;;;;4.28;100.00;100486.25;1781336;79;20117;-75
2024/02/21 14:08:10;;;;;;;;;;;;;;;4.26;100.00;100486.28;1745841;80;20603;-75
2024/02/21 14:10:37;;;;;;;;;;;;;;;4.23;100.00;100492.80;1745961;80;20162;-75
2024/02/21 14:13:03;;;;;;;;;;;;;;;4.22;100.00;100491.55;1749339;81;20395;-73
2024/02/21 14:15:30;;;;;;;;;;;;;;;4.20;100.00;100496.73;1745831;81;20146;-79
2024/02/21 14:17:56;;;;;;;;;;;;;;;4.20;100.00;100490.73;1746445;81;20143;-82
2024/02/21 14:20:22;;;;;;;;;;;;;;;4.17;100.00;100490.36;1745206;81;20116;-74
2024/02/21 14:22:49;;;;;;;;;;;;;;;4.18;100.00;100492.05;1755119;81;20159;-74
2024/02/21 14:25:19;;;;;;;;;;;;;;;4.19;100.00;100495.48;1743073;81;20135;-74
2024/02/21 14:27:49;;;;;;;;;;;;;;;4.20;100.00;100494.59;1718447;81;20087;-72
2024/02/21 14:30:15;;;;;;;;;;;;;;;4.19;100.00;100496.77;1747478;81;20131;-71
2024/02/21 14:32:43;;;;;;;;;;;;;;;4.16;100.00;100492.97;1737205;81;20429;-77
2024/02/21 14:35:10;;;;;;;;;;;;;;;4.14;100.00;100494.73;1747435;82;20113;-74
2024/02/21 14:37:37;;;;;;;;;;;;;;;4.12;100.00;100490.05;1741128;81;20150;-76
2024/02/21 14:40:04;;;;;;;;;;;;;;;4.09;100.00;100490.12;1744631;81;20154;-75
2024/02/21 14:42:30;;;;;;;;;;;;;;;4.06;100.00;100490.19;1750425;81;20136;-78
2024/02/21 14:45:03;;;;;;;;;;;;;;;4.05;100.00;100491.06;1747607;81;20083;-73
2024/02/21 14:47:25;;;;;;;;;;;;;;;4.03;100.00;100497.09;1747310;80;20170;-73
2024/02/21 14:49:51;;;;;;;;;;;;;;;4.03;100.00;100497.53;1740173;80;20139;-75
2024/02/21 14:52:18;;;;;;;;;;;;;;;4.03;100.00;100498.83;1755360;81;20402;-73
2024/02/21 14:54:48;;;;;;;;;;;;;;;4.01;100.00;100501.44;1751670;81;20363;-74
2024/02/21 14:57:12;;;;;;;;;;;;;;;3.98;100.00;100497.67;1736070;82;20111;-71
2024/02/21 14:59:40;;;;;;;;;;;;;;;3.95;100.00;100493.87;1744792;81;20107;-70
2024/02/21 15:02:08;;;;;;;;;;;;;;;3.93;100.00;100497.36;1737105;81;20159;-71
2024/02/21 15:04:35;;;;;;;;;;;;;;;3.93;100.00;100496.07;1741217;81;20818;-71
2024/02/21 15:07:02;;;;;;;;;;;;;;;3.89;100.00;100499.59;1744021;81;20112;-75
2024/02/21 15:09:28;;;;;;;;;;;;;;;3.88;100.00;100498.73;1756498;81;20221;-74
